Time;durP1;ratioP1;P1;durP2;ratioP2;P2;SDS_P1;SDS_P2;PMS_P1;PMS_P2;Temp;Humidity;BMP_temperature;BMP_pressure;BME280_temperature;BME280_humidity;BME280_pressure;Samples;Min_cycle;Max_cycle;Signal;HPM_P1;HPM_P2
2023/06/13 00:02:25;;;;;;;7.95;4.70;;;;;;;24.54;30.78;101235.84;5078225;28;20097;-62
2023/06/13 00:04:51;;;;;;;8.38;5.03;;;;;;;24.52;30.82;101244.69;5074888;28;20124;-62
2023/06/13 00:07:16;;;;;;;8.82;4.95;;;;;;;24.47;31.32;101240.03;5092008;28;20475;-62
2023/06/13 00:09:43;;;;;;;8.55;4.90;;;;;;;24.51;30.40;101237.34;5074293;28;20032;-62
2023/06/13 00:12:09;;;;;;;5.30;4.53;;;;;;;24.46;30.50;101235.53;5082482;28;20020;-62
2023/06/13 00:14:35;;;;;;;8.35;5.00;;;;;;;24.39;30.34;101237.22;5085155;28;20036;-62
2023/06/13 00:17:01;;;;;;;10.23;5.10;;;;;;;24.46;30.66;101234.69;5091858;28;20375;-62
2023/06/13 00:19:28;;;;;;;6.32;4.95;;;;;;;24.41;30.83;101240.56;5092060;28;20149;-62
2023/06/13 00:21:56;;;;;;;9.75;4.90;;;;;;;24.29;30.45;101229.88;5067718;28;20414;-62
2023/06/13 00:24:21;;;;;;;8.45;4.55;;;;;;;24.39;30.78;101238.03;5077272;28;20383;-62
2023/06/13 00:26:46;;;;;;;6.13;4.88;;;;;;;24.34;30.60;101231.69;5088747;28;20036;-62
2023/06/13 00:29:12;;;;;;;6.63;4.60;;;;;;;24.28;30.36;101224.53;5091332;28;20023;-62
2023/06/13 00:31:37;;;;;;;6.57;4.40;;;;;;;24.23;30.51;101234.03;5088015;28;20472;-62
2023/06/13 00:34:03;;;;;;;7.53;4.70;;;;;;;24.20;30.58;101229.03;5090292;28;20126;-62
2023/06/13 00:36:28;;;;;;;6.70;4.60;;;;;;;24.20;30.53;101231.88;5081872;28;20036;-62
2023/06/13 00:38:57;;;;;;;5.85;4.57;;;;;;;24.15;31.07;101235.72;5064076;28;20431;-63
2023/06/13 00:41:23;;;;;;;6.25;4.43;;;;;;;24.15;30.91;101232.88;5067468;28;20036;-63
2023/06/13 00:43:48;;;;;;;6.60;4.82;;;;;;;24.15;31.46;101232.88;5091068;28;20039;-63
2023/06/13 00:46:17;;;;;;;6.63;4.68;;;;;;;24.09;31.05;101234.25;5081032;28;20025;-63
2023/06/13 00:48:44;;;;;;;7.80;4.75;;;;;;;23.97;31.64;101236.91;5071667;28;20021;-63
2023/06/13 00:51:11;;;;;;;6.93;4.97;;;;;;;23.95;31.46;101230.75;5069867;28;20024;-63
2023/06/13 00:53:36;;;;;;;6.57;5.05;;;;;;;23.89;32.37;101227.22;5074273;28;20477;-63
2023/06/13 00:56:02;;;;;;;8.82;5.13;;;;;;;23.81;31.59;101236.56;5071341;28;20032;-63
2023/06/13 00:58:28;;;;;;;6.70;4.68;;;;;;;23.81;32.31;101236.56;5060649;28;20577;-63
2023/06/13 01:00:54;;;;;;;6.13;5.22;;;;;;;23.79;32.63;101229.59;5070948;28;20476;-63
2023/06/13 01:03:20;;;;;;;10.13;5.85;;;;;;;23.75;31.99;101233.09;5070178;28;20718;-63
2023/06/13 01:05:47;;;;;;;7.68;5.00;;;;;;;23.68;33.16;101226.25;5076146;28;20028;-63
2023/06/13 01:08:16;;;;;;;10.30;5.18;;;;;;;23.56;33.39;101223.22;5087880;28;20021;-63
2023/06/13 01:10:44;;;;;;;6.45;5.15;;;;;;;23.59;32.58;101214.06;5084773;28;20032;-63
2023/06/13 01:13:21;;;;;;;7.47;5.05;;;;;;;23.57;32.49;101214.38;5060889;28;20032;-63
2023/06/13 01:15:58;;;;;;;11.63;5.40;;;;;;;23.55;33.55;101219.56;5069903;28;20112;-63
2023/06/13 01:18:25;;;;;;;8.13;4.90;;;;;;;23.50;33.20;101225.34;5070918;28;20205;-63
2023/06/13 01:20:56;;;;;;;6.82;5.22;;;;;;;23.54;33.40;101220.72;5055135;28;20111;-63
2023/06/13 01:23:30;;;;;;;6.32;4.70;;;;;;;23.44;33.21;101221.03;5050539;28;20032;-63
2023/06/13 01:26:23;;;;;;;10.27;5.20;;;;;;;23.39;33.53;101226.88;5080281;28;20466;-63
2023/06/13 01:28:51;;;;;;;7.70;4.97;;;;;;;23.39;33.61;101230.53;5078421;28;20452;-63
2023/06/13 01:31:19;;;;;;;8.60;5.07;;;;;;;23.32;33.69;101227.34;5052784;28;20091;-63
2023/06/13 01:33:46;;;;;;;7.70;5.20;;;;;;;23.31;33.24;101224.84;5050287;28;20771;-63
2023/06/13 01:36:12;;;;;;;6.93;5.25;;;;;;;23.32;33.44;101224.50;5075799;28;20036;-63
2023/06/13 01:38:38;;;;;;;8.95;5.15;;;;;;;23.22;33.48;101221.97;5088009;28;20032;-63
2023/06/13 01:41:03;;;;;;;5.60;5.07;;;;;;;23.17;33.70;101225.81;5071948;28;20032;-63
2023/06/13 01:43:29;;;;;;;8.52;5.40;;;;;;;23.12;33.79;101225.97;5070450;28;20094;-63
2023/06/13 01:46:02;;;;;;;6.70;5.15;;;;;;;23.02;34.06;101226.25;5079106;28;20024;-63
2023/06/13 01:48:30;;;;;;;7.38;5.18;;;;;;;23.14;34.44;101219.97;5059552;28;20590;-63
2023/06/13 01:51:19;;;;;;;5.65;4.70;;;;;;;23.09;34.07;101222.97;5075162;28;20063;-62
2023/06/13 01:53:56;;;;;;;5.60;4.70;;;;;;;22.91;34.47;101216.41;5086215;28;20047;-62
2023/06/13 01:56:27;;;;;;;5.55;4.57;;;;;;;22.81;34.90;101214.69;5080959;28;20046;-63
2023/06/13 01:58:57;;;;;;;6.80;5.30;;;;;;;22.79;35.21;101211.31;5078631;28;20033;-63
2023/06/13 02:01:25;;;;;;;6.68;5.32;;;;;;;22.67;35.46;101214.78;5076198;28;20028;-63
2023/06/13 02:03:51;;;;;;;7.63;5.30;;;;;;;22.59;35.73;101218.41;5085927;28;20032;-62
2023/06/13 02:06:17;;;;;;;5.65;4.65;;;;;;;22.58;35.50;101215.91;5068445;28;20032;-63
2023/06/13 02:08:44;;;;;;;9.15;4.93;;;;;;;22.57;35.76;101209.41;5080065;28;20028;-63
2023/06/13 02:11:09;;;;;;;6.35;5.05;;;;;;;22.50;35.56;101209.88;5078820;28;20028;-63
2023/06/13 02:13:34;;;;;;;6.65;5.03;;;;;;;22.57;35.22;101209.41;5081574;28;20448;-63
2023/06/13 02:16:00;;;;;;;7.03;5.13;;;;;;;22.59;35.74;101211.91;5083913;28;20574;-63
2023/06/13 02:18:27;;;;;;;6.65;5.40;;;;;;;22.49;35.76;101219.53;5089682;28;20047;-63
2023/06/13 02:20:53;;;;;;;7.72;5.35;;;;;;;22.46;36.03;101214.53;5085728;28;20051;-63
2023/06/13 02:23:19;;;;;;;10.73;5.45;;;;;;;22.37;36.19;101216.47;5065575;28;20085;-63
2023/06/13 02:25:44;;;;;;;7.65;5.40;;;;;;;22.36;36.28;101216.78;5083393;28;20081;-63
2023/06/13 02:28:10;;;;;;;7.38;5.25;;;;;;;22.37;36.51;101215.66;5086239;28;20033;-63
2023/06/13 02:30:35;;;;;;;6.75;5.15;;;;;;;22.28;36.61;101209.91;5094523;28;20114;-63
2023/06/13 02:33:01;;;;;;;8.63;5.75;;;;;;;22.28;36.36;101210.78;5084850;28;20093;-63
2023/06/13 02:35:26;;;;;;;6.63;5.40;;;;;;;22.20;36.68;101217.19;5084672;28;20032;-63
2023/06/13 02:37:55;;;;;;;8.43;5.40;;;;;;;22.13;36.93;101219.66;5081450;28;20108;-63
2023/06/13 02:40:21;;;;;;;7.60;5.40;;;;;;;22.09;36.89;101221.44;5076569;28;20144;-63
2023/06/13 02:42:48;;;;;;;6.70;5.07;;;;;;;22.08;37.11;101214.06;5081571;28;20044;-63
2023/06/13 02:45:13;;;;;;;10.02;5.30;;;;;;;21.97;37.39;101222.00;5097151;28;20032;-63
2023/06/13 02:47:39;;;;;;;9.27;5.35;;;;;;;22.02;37.41;101219.03;5095253;28;20035;-63
2023/06/13 02:50:04;;;;;;;8.65;5.32;;;;;;;21.97;37.35;101218.34;5089640;28;20079;-63
2023/06/13 02:52:31;;;;;;;6.95;5.53;;;;;;;21.91;37.34;101213.97;5080689;28;20438;-63
2023/06/13 02:54:56;;;;;;;10.18;5.38;;;;;;;21.91;37.35;101213.97;5085145;28;20475;-62
2023/06/13 02:57:21;;;;;;;9.88;6.03;;;;;;;21.78;37.58;101216.53;5058865;28;20082;-63
2023/06/13 02:59:47;;;;;;;11.55;6.05;;;;;;;21.83;37.57;101217.56;5074187;28;20055;-63
2023/06/13 03:02:13;;;;;;;8.63;5.72;;;;;;;21.83;37.28;101211.91;5074401;28;20021;-63
2023/06/13 03:04:39;;;;;;;10.20;6.57;;;;;;;21.80;37.30;101217.03;5090810;28;20097;-63
2023/06/13 03:07:05;;;;;;;9.50;6.18;;;;;;;21.72;37.58;101220.63;5091232;28;20031;-63
2023/06/13 03:09:31;;;;;;;7.18;5.97;;;;;;;21.72;37.46;101208.50;5060380;28;20040;-63
2023/06/13 03:11:59;;;;;;;8.70;6.68;;;;;;;21.69;37.38;101212.81;5063158;28;20035;-63
2023/06/13 03:14:24;;;;;;;7.07;6.20;;;;;;;21.71;37.51;101215.31;5073044;28;20442;-62
2023/06/13 03:16:52;;;;;;;9.43;5.93;;;;;;;21.64;37.79;101215.75;5075556;28;20021;-63
2023/06/13 03:19:18;;;;;;;8.90;6.50;;;;;;;21.68;37.14;101222.41;5076037;28;20032;-62
2023/06/13 03:21:43;;;;;;;7.35;6.57;;;;;;;21.65;37.24;101217.41;5075124;28;20039;-62
2023/06/13 03:24:08;;;;;;;10.25;7.05;;;;;;;21.65;37.21;101214.56;5077507;28;20032;-62
2023/06/13 03:26:38;;;;;;;8.70;6.68;;;;;;;21.70;37.34;101222.94;5073101;28;20028;-62
2023/06/13 03:29:03;;;;;;;10.60;6.70;;;;;;;21.69;37.69;101212.81;5075928;28;20060;-62
2023/06/13 03:31:29;;;;;;;11.85;6.97;;;;;;;21.55;37.80;101207.19;5075065;28;20048;-62
2023/06/13 03:33:54;;;;;;;9.77;6.63;;;;;;;21.68;37.42;101207.47;5089544;28;20115;-62
2023/06/13 03:36:19;;;;;;;8.23;7.15;;;;;;;21.69;37.20;101210.00;5096227;28;20028;-62
2023/06/13 03:38:44;;;;;;;7.60;6.38;;;;;;;21.70;37.06;101203.19;5090518;28;20058;-62
2023/06/13 03:41:10;;;;;;;10.55;6.47;;;;;;;21.64;37.23;101203.59;5085528;28;20024;-62
2023/06/13 03:43:35;;;;;;;9.05;6.30;;;;;;;21.70;37.07;101213.66;5069688;28;20031;-62
2023/06/13 03:46:00;;;;;;;8.68;6.75;;;;;;;21.66;36.98;101207.78;5080710;28;20056;-62
2023/06/13 03:48:26;;;;;;;9.90;7.15;;;;;;;21.66;37.40;101204.13;5074831;28;20032;-62
2023/06/13 03:50:51;;;;;;;10.02;6.35;;;;;;;21.56;37.95;101210.84;5077805;28;20036;-63
2023/06/13 03:53:16;;;;;;;9.48;6.72;;;;;;;21.56;37.39;101208.03;5076578;28;20024;-63
2023/06/13 03:55:45;;;;;;;7.75;6.97;;;;;;;21.54;38.15;101214.00;5069527;28;20122;-63
2023/06/13 03:58:11;;;;;;;10.52;6.95;;;;;;;21.45;38.10;101206.59;5071599;28;20040;-62
2023/06/13 04:00:39;;;;;;;7.25;6.55;;;;;;;21.41;37.97;101212.03;5066156;28;20143;-62
2023/06/13 04:03:07;;;;;;;8.48;6.68;;;;;;;21.43;38.58;101215.41;5072224;28;20047;-63
2023/06/13 04:05:33;;;;;;;8.32;6.72;;;;;;;21.46;38.70;101222.41;5063699;28;20039;-62
2023/06/13 04:07:58;;;;;;;8.90;7.13;;;;;;;21.36;38.61;101214.16;5066805;28;20720;-63
2023/06/13 04:10:23;;;;;;;11.07;7.13;;;;;;;21.45;38.84;101215.91;5060262;28;20087;-63
2023/06/13 04:12:49;;;;;;;8.77;7.10;;;;;;;21.40;38.87;101206.72;5061380;28;20045;-63
2023/06/13 04:15:15;;;;;;;9.80;6.70;;;;;;;21.36;39.00;101216.97;5069628;28;20098;-63
2023/06/13 04:17:40;;;;;;;10.00;6.72;;;;;;;21.27;38.76;101212.06;5071998;28;20510;-63
2023/06/13 04:20:06;;;;;;;8.35;7.15;;;;;;;21.35;38.69;101206.84;5069118;28;20097;-63
2023/06/13 04:22:31;;;;;;;10.55;7.70;;;;;;;21.45;38.06;101215.06;5065287;28;20086;-63
2023/06/13 04:24:57;;;;;;;9.52;7.05;;;;;;;21.45;38.07;101215.91;5059347;28;20110;-63
2023/06/13 04:27:27;;;;;;;10.02;7.50;;;;;;;21.48;37.99;101217.25;5060174;28;20049;-63
2023/06/13 04:29:53;;;;;;;11.98;7.80;;;;;;;21.46;37.86;101219.59;5068670;28;20056;-63
2023/06/13 04:32:23;;;;;;;10.32;7.28;;;;;;;21.42;38.23;101221.34;5066867;28;20051;-63
2023/06/13 04:34:52;;;;;;;9.60;7.75;;;;;;;21.44;37.97;101219.06;5064789;28;20047;-63
2023/06/13 04:37:23;;;;;;;11.85;7.57;;;;;;;21.37;38.29;101224.28;5062558;28;20138;-63
2023/06/13 04:39:52;;;;;;;17.58;8.15;;;;;;;21.44;38.33;101227.53;5062359;28;20115;-63
2023/06/13 04:42:28;;;;;;;10.93;7.80;;;;;;;21.38;38.58;101229.63;5067405;28;20044;-63
2023/06/13 04:44:56;;;;;;;9.80;8.02;;;;;;;21.44;38.07;101227.53;5064859;28;20039;-63
2023/06/13 04:47:23;;;;;;;10.13;8.00;;;;;;;21.48;38.39;101231.38;5076954;28;20463;-63
2023/06/13 04:49:51;;;;;;;11.25;8.43;;;;;;;21.48;38.36;101225.72;5082067;28;20032;-63
2023/06/13 04:52:18;;;;;;;11.43;8.25;;;;;;;21.49;38.83;101231.06;5072084;28;20434;-62
2023/06/13 04:54:44;;;;;;;14.60;8.63;;;;;;;21.56;38.56;101236.28;5089899;28;20032;-63
2023/06/13 04:57:10;;;;;;;9.65;8.55;;;;;;;21.51;38.93;101227.94;5085808;28;20632;-63
2023/06/13 04:59:35;;;;;;;13.77;9.35;;;;;;;21.58;38.54;101236.81;5071063;28;20032;-63
2023/06/13 05:02:00;;;;;;;13.68;9.57;;;;;;;21.51;39.20;101237.22;5070184;28;20028;-62
2023/06/13 05:04:26;;;;;;;11.38;8.98;;;;;;;21.53;38.80;101242.56;5069035;28;20040;-62
2023/06/13 05:06:51;;;;;;;11.68;9.18;;;;;;;21.55;38.60;101245.91;5059271;28;20138;-62
2023/06/13 05:09:17;;;;;;;11.00;9.27;;;;;;;21.49;38.81;101247.16;5082016;28;20032;-63
2023/06/13 05:11:43;;;;;;;10.07;8.23;;;;;;;21.49;38.59;101252.81;5088753;28;20031;-63
2023/06/13 05:14:08;;;;;;;16.02;9.20;;;;;;;21.55;38.56;101246.75;5091403;28;20080;-62
2023/06/13 05:16:34;;;;;;;12.93;8.52;;;;;;;21.62;38.51;101251.97;5078976;28;20544;-62
2023/06/13 05:19:00;;;;;;;12.57;8.13;;;;;;;21.52;38.53;101244.53;5066662;28;20028;-62
2023/06/13 05:21:30;;;;;;;11.68;8.60;;;;;;;21.58;38.47;101247.28;5081396;28;20061;-63
2023/06/13 05:23:57;;;;;;;12.82;8.73;;;;;;;21.56;38.78;101248.41;5089562;28;20097;-63
2023/06/13 05:26:22;;;;;;;12.55;8.48;;;;;;;21.47;38.70;101243.84;5090040;28;20035;-62
2023/06/13 05:28:48;;;;;;;11.20;7.72;;;;;;;21.46;38.63;101250.66;5090746;28;20020;-62
2023/06/13 05:31:13;;;;;;;10.63;7.70;;;;;;;21.57;38.55;101249.22;5079095;28;20112;-62
2023/06/13 05:33:38;;;;;;;12.40;7.55;;;;;;;21.62;38.64;101256.78;5079061;28;20043;-63
2023/06/13 05:36:04;;;;;;;9.57;8.50;;;;;;;21.53;38.43;101251.84;5057181;28;20469;-62
2023/06/13 05:38:29;;;;;;;11.45;7.57;;;;;;;21.49;38.88;101253.66;5059243;28;20039;-62
2023/06/13 05:40:55;;;;;;;9.65;7.32;;;;;;;21.61;38.88;101253.09;5064512;28;20036;-62
2023/06/13 05:43:20;;;;;;;10.30;7.95;;;;;;;21.58;38.30;101255.75;5080230;28;20070;-63
2023/06/13 05:45:47;;;;;;;13.38;8.05;;;;;;;21.55;38.67;101255.22;5067060;28;20078;-62
2023/06/13 05:48:12;;;;;;;13.52;7.47;;;;;;;21.61;38.31;101255.91;5072390;28;20029;-62
2023/06/13 05:50:38;;;;;;;11.40;8.13;;;;;;;21.59;38.33;101251.75;5058711;28;20036;-62
2023/06/13 05:53:03;;;;;;;11.10;7.50;;;;;;;21.66;38.03;101258.66;5063066;28;20021;-63
2023/06/13 05:55:28;;;;;;;9.85;7.70;;;;;;;21.73;39.66;101255.38;5069138;28;20379;-63
2023/06/13 05:57:53;;;;;;;10.73;7.55;;;;;;;21.81;38.40;101261.13;5086150;28;20036;-63
2023/06/13 06:00:19;;;;;;;9.63;8.02;;;;;;;21.88;37.99;101255.00;5083334;28;20132;-63
2023/06/13 06:02:46;;;;;;;8.73;6.82;;;;;;;21.95;37.91;101260.22;5066088;28;20157;-62
2023/06/13 06:05:11;;;;;;;8.25;7.25;;;;;;;21.95;38.05;101260.22;5075264;28;20044;-64
2023/06/13 06:07:43;;;;;;;11.38;7.70;;;;;;;22.02;38.39;101261.44;5067844;28;20039;-62
2023/06/13 06:10:10;;;;;;;5.63;4.97;;;;;;;22.25;42.48;101261.47;5070838;28;20032;-62
2023/06/13 06:12:36;;;;;;;5.63;5.13;;;;;;;22.36;40.44;101270.50;5084045;28;20028;-62
2023/06/13 06:15:02;;;;;;;8.65;7.55;;;;;;;22.35;38.38;101269.69;5069025;28;20041;-62
2023/06/13 06:17:27;;;;;;;12.65;7.72;;;;;;;22.44;38.20;101270.59;5070870;28;20028;-62
2023/06/13 06:19:53;;;;;;;10.35;7.30;;;;;;;22.52;37.71;101269.81;5064253;28;20058;-62
2023/06/13 06:22:19;;;;;;;6.82;5.60;;;;;;;22.66;41.30;101269.69;5080695;28;20066;-62
2023/06/13 06:24:44;;;;;;;10.00;6.65;;;;;;;22.69;38.20;101265.41;5072796;28;20046;-64
2023/06/13 06:27:12;;;;;;;10.43;7.05;;;;;;;22.74;38.41;101271.75;5073109;28;20017;-63
2023/06/13 06:29:39;;;;;;;7.70;5.32;;;;;;;22.93;40.95;101267.88;5079757;28;20043;-63
2023/06/13 06:32:05;;;;;;;10.82;6.30;;;;;;;23.00;40.61;101262.56;5077096;28;20107;-63
2023/06/13 06:34:31;;;;;;;11.02;7.15;;;;;;;23.07;38.00;101262.94;5066650;28;20136;-63
2023/06/13 06:36:56;;;;;;;9.82;7.05;;;;;;;23.12;37.13;101268.44;5070477;28;20447;-65
2023/06/13 06:39:22;;;;;;;12.90;7.05;;;;;;;23.15;37.31;101264.13;5070963;28;20028;-64
2023/06/13 06:41:47;;;;;;;11.43;6.50;;;;;;;23.26;40.17;101265.47;5086457;28;20056;-64
2023/06/13 06:44:13;;;;;;;7.07;5.60;;;;;;;23.36;38.71;101261.50;5085356;28;20448;-63
2023/06/13 06:46:38;;;;;;;11.70;7.60;;;;;;;23.34;37.24;101256.16;5078273;28;20036;-63
2023/06/13 06:49:03;;;;;;;9.60;6.60;;;;;;;23.37;37.08;101260.34;5062776;28;20054;-64
2023/06/13 06:51:29;;;;;;;6.80;5.40;;;;;;;23.55;39.03;101261.22;5070874;28;20475;-65
2023/06/13 06:53:56;;;;;;;15.48;7.43;;;;;;;23.58;36.62;101261.41;5069682;28;20028;-63
2023/06/13 06:56:21;;;;;;;9.25;5.82;;;;;;;23.70;38.81;101258.78;5072805;28;20025;-64
2023/06/13 06:58:47;;;;;;;8.20;5.95;;;;;;;23.76;37.37;101262.25;5080730;28;20036;-65
2023/06/13 07:01:14;;;;;;;6.93;6.15;;;;;;;23.76;37.92;101263.09;5072433;28;20059;-64
2023/06/13 07:03:40;;;;;;;7.97;5.72;;;;;;;23.84;38.12;101257.75;5064167;28;20114;-64
2023/06/13 07:06:05;;;;;;;6.32;5.50;;;;;;;23.88;39.05;101253.91;5063895;28;20124;-64
2023/06/13 07:08:32;;;;;;;10.93;6.18;;;;;;;23.95;37.97;101262.78;5073855;28;20353;-64
2023/06/13 07:10:57;;;;;;;9.35;6.20;;;;;;;23.98;38.14;101253.59;5066262;28;20086;-65
2023/06/13 07:13:22;;;;;;;8.13;7.20;;;;;;;23.95;36.38;101262.78;5063240;28;20095;-65
2023/06/13 07:15:48;;;;;;;9.90;6.90;;;;;;;23.96;35.59;101255.09;5066184;28;20495;-62
2023/06/13 07:18:13;;;;;;;8.10;5.60;;;;;;;24.03;37.51;101268.78;5081722;28;20036;-64
2023/06/13 07:20:38;;;;;;;9.40;6.50;;;;;;;24.05;37.25;101270.13;5078847;28;20038;-64
2023/06/13 07:23:05;;;;;;;6.78;6.07;;;;;;;24.04;38.16;101271.25;5072421;28;20063;-64
2023/06/13 07:25:32;;;;;;;8.20;5.75;;;;;;;24.16;36.77;101264.91;5060130;28;20027;-64
2023/06/13 07:27:58;;;;;;;9.25;6.15;;;;;;;24.18;35.92;101263.44;5052429;28;20025;-64
2023/06/13 07:30:23;;;;;;;8.35;6.03;;;;;;;24.18;35.83;101265.44;5058899;28;20035;-64
2023/06/13 07:32:48;;;;;;;7.35;5.80;;;;;;;24.26;36.33;101258.91;5052489;28;20127;-65
2023/06/13 07:35:16;;;;;;;8.70;6.60;;;;;;;24.30;36.39;101259.91;5052971;28;20040;-65
2023/06/13 07:37:42;;;;;;;9.68;6.00;;;;;;;24.35;35.69;101258.88;5051833;28;20021;-64
2023/06/13 07:40:08;;;;;;;8.00;5.70;;;;;;;24.40;35.53;101267.25;5052613;28;20099;-65
2023/06/13 07:42:34;;;;;;;8.07;5.90;;;;;;;24.43;36.14;101258.06;5070908;28;20047;-65
2023/06/13 07:45:00;;;;;;;7.35;5.90;;;;;;;24.48;36.08;101258.75;5074251;28;20047;-65
2023/06/13 07:47:25;;;;;;;7.47;5.57;;;;;;;24.55;37.03;101251.69;5068934;28;20384;-64
2023/06/13 07:49:50;;;;;;;6.82;5.55;;;;;;;24.62;35.89;101261.34;5071729;28;20388;-65
2023/06/13 07:52:16;;;;;;;10.65;5.85;;;;;;;24.62;35.17;101257.69;5071041;28;20499;-65
2023/06/13 07:54:41;;;;;;;12.13;5.95;;;;;;;24.65;34.46;101252.16;5072015;28;20020;-65
2023/06/13 07:57:06;;;;;;;6.43;4.80;;;;;;;24.70;35.99;101260.50;5072463;28;20029;-65
2023/06/13 07:59:32;;;;;;;6.95;5.18;;;;;;;24.79;35.76;101265.31;5071245;28;20415;-65
2023/06/13 08:01:58;;;;;;;10.60;6.40;;;;;;;24.82;35.23;101258.94;5069054;28;20020;-65
2023/06/13 08:04:24;;;;;;;10.45;5.95;;;;;;;24.84;36.14;101265.97;5057541;28;20484;-65
2023/06/13 08:06:50;;;;;;;10.90;6.32;;;;;;;24.84;33.95;101268.81;5051647;28;20025;-65
2023/06/13 08:09:16;;;;;;;7.78;6.00;;;;;;;24.89;34.39;101267.78;5052306;28;20036;-64
2023/06/13 08:11:41;;;;;;;8.63;6.03;;;;;;;24.93;34.31;101257.41;5087733;28;20082;-65
2023/06/13 08:14:12;;;;;;;6.32;5.60;;;;;;;25.01;35.98;101259.38;5091418;28;20499;-65
2023/06/13 08:16:38;;;;;;;9.65;5.55;;;;;;;25.07;34.56;101265.69;5091599;28;20076;-65
2023/06/13 08:19:04;;;;;;;8.80;5.80;;;;;;;25.10;34.59;101265.88;5068152;28;20041;-65
2023/06/13 08:21:31;;;;;;;7.95;5.35;;;;;;;25.09;37.23;101261.38;5069727;28;20132;-65
2023/06/13 08:23:57;;;;;;;8.00;6.13;;;;;;;25.08;34.09;101262.53;5064918;28;20059;-65
2023/06/13 08:26:22;;;;;;;7.47;5.40;;;;;;;25.10;35.76;101260.19;5068181;28;20472;-65
2023/06/13 08:28:48;;;;;;;7.90;5.60;;;;;;;25.17;33.81;101260.50;5068826;28;20075;-65
2023/06/13 08:31:13;;;;;;;7.28;5.15;;;;;;;25.21;33.70;101252.13;5063474;28;20032;-66
2023/06/13 08:33:39;;;;;;;10.07;6.55;;;;;;;25.19;34.16;101258.16;5068185;28;20043;-65
2023/06/13 08:36:05;;;;;;;8.68;5.88;;;;;;;25.22;34.86;101259.44;5071829;28;20040;-64
2023/06/13 08:38:30;;;;;;;7.90;5.85;;;;;;;25.26;34.88;101253.91;5063265;28;20122;-65
2023/06/13 08:40:55;;;;;;;9.80;5.95;;;;;;;25.30;34.90;101246.38;5067040;28;20031;-65
2023/06/13 08:43:20;;;;;;;8.38;6.32;;;;;;;25.35;34.44;101255.56;5071426;28;20467;-65
2023/06/13 08:45:46;;;;;;;10.35;6.50;;;;;;;25.35;33.22;101246.16;5071510;28;20085;-65
2023/06/13 08:48:12;;;;;;;7.05;5.60;;;;;;;25.37;33.58;101246.66;5060240;28;20120;-65
2023/06/13 08:50:37;;;;;;;10.07;5.80;;;;;;;25.43;33.73;101245.31;5051357;28;20511;-65
2023/06/13 08:53:03;;;;;;;7.43;5.25;;;;;;;25.47;33.37;101243.44;5064408;28;20100;-65
2023/06/13 08:55:36;;;;;;;8.73;6.40;;;;;;;25.50;34.02;101233.38;5069812;28;20177;-65
2023/06/13 08:58:04;;;;;;;10.75;5.82;;;;;;;25.56;33.38;101238.50;5071397;28;20495;-65
2023/06/13 09:00:35;;;;;;;9.60;5.40;;;;;;;25.65;35.14;101227.91;5070639;28;20480;-65
2023/06/13 09:03:03;;;;;;;8.70;5.20;;;;;;;25.69;34.49;101236.56;5070997;28;20055;-65
2023/06/13 09:05:29;;;;;;;10.68;5.72;;;;;;;25.75;33.19;101234.38;5067521;28;20028;-65
2023/06/13 09:07:56;;;;;;;9.95;5.82;;;;;;;25.75;32.39;101234.38;5066171;28;20028;-65
2023/06/13 09:10:22;;;;;;;5.95;5.32;;;;;;;25.80;32.35;101231.34;5060163;28;20507;-65
2023/06/13 09:12:51;;;;;;;10.82;5.50;;;;;;;25.84;32.26;101220.94;5071109;28;20056;-65
2023/06/13 09:15:16;;;;;;;7.47;5.90;;;;;;;25.86;32.63;101224.25;5069755;28;20036;-65
2023/06/13 09:17:42;;;;;;;10.02;5.47;;;;;;;25.89;32.48;101229.25;5070107;28;20036;-65
2023/06/13 09:20:08;;;;;;;9.07;6.03;;;;;;;25.91;32.27;101235.44;5070078;28;20124;-65
2023/06/13 09:22:35;;;;;;;9.43;5.35;;;;;;;25.97;33.24;101236.03;5066006;28;20068;-65
2023/06/13 09:25:04;;;;;;;9.85;5.50;;;;;;;26.00;34.41;101226.81;5067506;28;20036;-65
2023/06/13 09:27:29;;;;;;;11.68;6.05;;;;;;;25.99;32.22;101233.69;5068719;28;20084;-64
2023/06/13 09:29:58;;;;;;;8.82;5.72;;;;;;;26.10;32.15;101230.06;5068319;28;20601;-65
2023/06/13 09:32:23;;;;;;;8.13;5.10;;;;;;;26.09;32.84;101225.53;5069196;28;20024;-65
2023/06/13 09:34:48;;;;;;;10.25;5.95;;;;;;;26.10;31.42;101223.53;5069602;28;20384;-65
2023/06/13 09:37:15;;;;;;;7.60;5.90;;;;;;;26.20;31.93;101223.91;5069286;28;20060;-65
2023/06/13 09:39:51;;;;;;;8.60;5.38;;;;;;;26.19;32.26;101213.72;5069379;28;20056;-65
2023/06/13 09:42:23;;;;;;;12.65;5.72;;;;;;;26.25;33.53;101224.88;5060024;28;20036;-65
2023/06/13 09:44:49;;;;;;;7.85;5.38;;;;;;;26.40;31.46;101227.06;5066767;28;20475;-64
2023/06/13 09:47:22;;;;;;;8.25;5.40;;;;;;;26.39;30.96;101223.38;5069666;28;20052;-64
2023/06/13 09:49:53;;;;;;;9.48;5.28;;;;;;;26.44;31.06;101225.19;5070115;28;20768;-64
2023/06/13 09:52:23;;;;;;;6.30;4.95;;;;;;;26.44;30.86;101226.00;5069773;28;20032;-64
2023/06/13 09:54:48;;;;;;;8.18;5.13;;;;;;;26.56;30.90;101225.22;5068383;28;20127;-64
2023/06/13 09:57:14;;;;;;;7.80;5.00;;;;;;;26.56;30.13;101213.84;5069931;28;20560;-64
2023/06/13 09:59:39;;;;;;;6.45;5.20;;;;;;;26.57;32.05;101217.53;5064935;28;20016;-64
2023/06/13 10:02:05;;;;;;;6.60;5.05;;;;;;;26.54;30.41;101227.63;5069891;28;20460;-64
2023/06/13 10:04:31;;;;;;;5.72;5.15;;;;;;;26.54;31.35;101219.06;5069761;28;20043;-64
2023/06/13 10:06:56;;;;;;;8.13;5.40;;;;;;;26.56;32.19;101213.00;5066974;28;20036;-64
2023/06/13 10:09:21;;;;;;;7.32;5.40;;;;;;;26.56;30.68;101213.00;5069490;28;20028;-64
2023/06/13 10:11:53;;;;;;;6.10;5.13;;;;;;;26.60;31.80;101214.78;5076663;28;20179;-61
2023/06/13 10:14:22;;;;;;;6.22;5.28;;;;;;;26.60;29.54;101208.28;5082377;28;20051;-62
2023/06/13 10:16:54;;;;;;;6.90;4.53;;;;;;;26.65;32.20;101206.03;5068793;28;20032;-64
2023/06/13 10:19:21;;;;;;;7.75;5.30;;;;;;;26.68;29.32;101211.03;5068577;28;20048;-62
2023/06/13 10:21:48;;;;;;;8.13;5.00;;;;;;;26.76;29.07;101211.25;5076999;28;20025;-62
2023/06/13 10:24:15;;;;;;;5.90;4.80;;;;;;;26.78;29.58;101203.22;5068572;28;20555;-61
2023/06/13 10:26:44;;;;;;;9.55;5.32;;;;;;;26.80;32.93;101210.22;5068694;28;20097;-62
2023/06/13 10:29:42;;;;;;;6.28;4.70;;;;;;;26.84;29.47;101210.31;5070253;28;20483;-63
2023/06/13 10:32:15;;;;;;;6.60;4.97;;;;;;;26.87;31.27;101209.59;5072248;28;20051;-63
2023/06/13 10:35:00;;;;;;;8.05;5.30;;;;;;;26.91;29.80;101210.56;5069098;28;20479;-62
2023/06/13 10:38:14;;;;;;;10.43;4.95;;;;;;;26.94;29.59;101212.69;5049502;28;20044;-64
2023/06/13 10:41:27;;;;;;;7.10;4.40;;;;;;;26.97;29.26;101205.47;5050622;28;20029;-64
2023/06/13 10:44:04;;;;;;;5.57;4.72;;;;;;;26.93;28.80;101206.19;5052105;28;20055;-64
2023/06/13 10:46:32;;;;;;;12.05;5.32;;;;;;;27.04;28.20;101215.09;5069321;28;20032;-64
2023/06/13 10:48:59;;;;;;;5.95;4.95;;;;;;;27.01;28.35;101206.41;5070392;28;20033;-66
2023/06/13 10:51:28;;;;;;;7.30;5.53;;;;;;;27.06;27.64;101206.16;5081572;28;20154;-63
2023/06/13 10:53:57;;;;;;;8.38;4.90;;;;;;;27.06;26.19;101221.25;5074016;28;20140;-64
2023/06/13 10:56:29;;;;;;;7.15;5.00;;;;;;;27.07;26.54;101207.81;5085788;28;20391;-64
2023/06/13 10:59:05;;;;;;;8.85;4.65;;;;;;;27.08;27.18;101204.63;5075814;28;20101;-64
2023/06/13 11:01:33;;;;;;;9.15;4.70;;;;;;;27.06;25.63;101198.44;5065902;28;20028;-63
2023/06/13 11:04:22;;;;;;;8.02;4.63;;;;;;;27.08;26.48;101196.09;5068823;28;20025;-63
2023/06/13 11:06:51;;;;;;;7.35;4.75;;;;;;;27.12;27.65;101197.06;5074370;28;20040;-62
2023/06/13 11:09:22;;;;;;;9.35;4.57;;;;;;;27.12;27.47;101191.38;5079497;28;20186;-62
2023/06/13 11:11:52;;;;;;;5.28;4.60;;;;;;;27.13;28.07;101187.31;5069378;28;20039;-63
2023/06/13 11:14:23;;;;;;;9.73;4.95;;;;;;;27.15;26.86;101192.66;5066173;28;20040;-60
2023/06/13 11:16:49;;;;;;;8.27;5.22;;;;;;;27.17;29.39;101193.97;5078297;28;20473;-62
2023/06/13 11:19:21;;;;;;;5.63;4.70;;;;;;;27.32;26.87;101186.72;5061498;28;20040;-64
2023/06/13 11:21:52;;;;;;;5.30;4.80;;;;;;;27.28;27.50;101191.47;5057733;28;20033;-64
2023/06/13 11:24:18;;;;;;;11.18;4.97;;;;;;;27.28;26.63;101191.47;5067952;28;20040;-63